sensor_id;sensor_type;location;lat;lon;timestamp;temperature;humidity
37642;DHT22;23486;51.956;5.888;2022-08-18T00:00:29;19.70;99.90
37642;DHT22;23486;51.956;5.888;2022-08-18T00:03:03;19.70;99.90
37642;DHT22;23486;51.956;5.888;2022-08-18T00:05:29;19.70;99.90
37642;DHT22;23486;51.956;5.888;2022-08-18T00:07:55;19.60;99.90
37642;DHT22;23486;51.956;5.888;2022-08-18T00:10:20;19.60;99.90
37642;DHT22;23486;51.956;5.888;2022-08-18T00:12:46;19.50;99.90
37642;DHT22;23486;51.956;5.888;2022-08-18T00:15:15;19.60;99.90
37642;DHT22;23486;51.956;5.888;2022-08-18T00:17:42;19.50;99.90
37642;DHT22;23486;51.956;5.888;2022-08-18T00:20:14;19.40;99.90
37642;DHT22;23486;51.956;5.888;2022-08-18T00:22:40;19.50;99.90
37642;DHT22;23486;51.956;5.888;2022-08-18T00:25:07;19.40;99.90
37642;DHT22;23486;51.956;5.888;2022-08-18T00:27:36;19.40;99.90
37642;DHT22;23486;51.956;5.888;2022-08-18T00:30:06;19.50;99.90
37642;DHT22;23486;51.956;5.888;2022-08-18T00:32:35;19.40;99.90
37642;DHT22;23486;51.956;5.888;2022-08-18T00:35:20;19.40;99.90
37642;DHT22;23486;51.956;5.888;2022-08-18T00:37:47;19.40;99.90
37642;DHT22;23486;51.956;5.888;2022-08-18T00:40:17;19.40;99.90
37642;DHT22;23486;51.956;5.888;2022-08-18T00:42:47;19.40;99.90
37642;DHT22;23486;51.956;5.888;2022-08-18T00:45:18;19.50;99.90
37642;DHT22;23486;51.956;5.888;2022-08-18T00:47:44;19.50;99.90
37642;DHT22;23486;51.956;5.888;2022-08-18T00:50:13;19.60;99.90
37642;DHT22;23486;51.956;5.888;2022-08-18T00:52:40;19.50;99.90
37642;DHT22;23486;51.956;5.888;2022-08-18T00:55:07;19.40;99.90
37642;DHT22;23486;51.956;5.888;2022-08-18T00:57:33;19.40;99.90
37642;DHT22;23486;51.956;5.888;2022-08-18T01:00:05;19.30;99.90
37642;DHT22;23486;51.956;5.888;2022-08-18T01:02:42;19.30;99.90
37642;DHT22;23486;51.956;5.888;2022-08-18T01:05:33;19.30;99.90
37642;DHT22;23486;51.956;5.888;2022-08-18T01:07:59;19.30;99.90
37642;DHT22;23486;51.956;5.888;2022-08-18T01:10:25;19.30;99.90
37642;DHT22;23486;51.956;5.888;2022-08-18T01:12:56;19.40;99.90
37642;DHT22;23486;51.956;5.888;2022-08-18T01:15:24;19.40;99.90
37642;DHT22;23486;51.956;5.888;2022-08-18T01:17:50;19.40;99.90
37642;DHT22;23486;51.956;5.888;2022-08-18T01:23:25;19.30;99.90
37642;DHT22;23486;51.956;5.888;2022-08-18T01:25:52;19.30;99.90
37642;DHT22;23486;51.956;5.888;2022-08-18T01:28:28;19.30;99.90
37642;DHT22;23486;51.956;5.888;2022-08-18T01:30:55;19.30;99.90
37642;DHT22;23486;51.956;5.888;2022-08-18T01:33:28;19.40;99.90
37642;DHT22;23486;51.956;5.888;2022-08-18T01:36:05;19.40;99.90
37642;DHT22;23486;51.956;5.888;2022-08-18T01:38:31;19.30;99.90
37642;DHT22;23486;51.956;5.888;2022-08-18T01:40:58;19.30;99.90
37642;DHT22;23486;51.956;5.888;2022-08-18T01:43:25;19.30;99.90
37642;DHT22;23486;51.956;5.888;2022-08-18T01:45:51;19.30;99.90
37642;DHT22;23486;51.956;5.888;2022-08-18T01:48:19;19.20;99.90
37642;DHT22;23486;51.956;5.888;2022-08-18T01:50:45;19.30;99.90
37642;DHT22;23486;51.956;5.888;2022-08-18T01:53:13;19.20;99.90
37642;DHT22;23486;51.956;5.888;2022-08-18T01:55:40;19.20;99.90
37642;DHT22;23486;51.956;5.888;2022-08-18T01:58:09;19.20;99.90
37642;DHT22;23486;51.956;5.888;2022-08-18T02:00:34;19.10;99.90
37642;DHT22;23486;51.956;5.888;2022-08-18T02:03:01;19.00;99.90
37642;DHT22;23486;51.956;5.888;2022-08-18T02:05:35;19.00;99.90
37642;DHT22;23486;51.956;5.888;2022-08-18T02:08:02;18.90;99.90
37642;DHT22;23486;51.956;5.888;2022-08-18T02:10:29;18.90;99.90
37642;DHT22;23486;51.956;5.888;2022-08-18T02:12:55;18.90;99.90
37642;DHT22;23486;51.956;5.888;2022-08-18T02:15:21;18.90;99.90
37642;DHT22;23486;51.956;5.888;2022-08-18T02:17:46;18.90;99.90
37642;DHT22;23486;51.956;5.888;2022-08-18T02:20:14;18.90;99.90
37642;DHT22;23486;51.956;5.888;2022-08-18T02:22:41;18.90;99.90
37642;DHT22;23486;51.956;5.888;2022-08-18T02:25:08;18.90;99.90
37642;DHT22;23486;51.956;5.888;2022-08-18T02:27:34;18.90;99.90
37642;DHT22;23486;51.956;5.888;2022-08-18T02:30:02;18.80;99.90
37642;DHT22;23486;51.956;5.888;2022-08-18T02:32:28;18.90;99.90
37642;DHT22;23486;51.956;5.888;2022-08-18T02:34:54;18.90;99.90
37642;DHT22;23486;51.956;5.888;2022-08-18T02:37:19;18.80;99.90
37642;DHT22;23486;51.956;5.888;2022-08-18T02:39:46;18.80;99.90
37642;DHT22;23486;51.956;5.888;2022-08-18T02:42:11;18.90;99.90
37642;DHT22;23486;51.956;5.888;2022-08-18T02:44:39;18.90;99.90
37642;DHT22;23486;51.956;5.888;2022-08-18T02:47:04;18.90;99.90
37642;DHT22;23486;51.956;5.888;2022-08-18T02:49:33;19.00;99.90
37642;DHT22;23486;51.956;5.888;2022-08-18T02:52:01;19.00;99.90
37642;DHT22;23486;51.956;5.888;2022-08-18T02:54:27;19.00;99.90
37642;DHT22;23486;51.956;5.888;2022-08-18T02:56:53;19.00;99.90
37642;DHT22;23486;51.956;5.888;2022-08-18T02:59:23;19.00;99.90
37642;DHT22;23486;51.956;5.888;2022-08-18T03:01:51;19.00;99.90
37642;DHT22;23486;51.956;5.888;2022-08-18T03:04:23;18.90;99.90
37642;DHT22;23486;51.956;5.888;2022-08-18T03:06:55;18.90;99.90
37642;DHT22;23486;51.956;5.888;2022-08-18T03:09:21;18.90;99.90
37642;DHT22;23486;51.956;5.888;2022-08-18T03:11:47;18.90;99.90
37642;DHT22;23486;51.956;5.888;2022-08-18T03:14:13;18.90;99.90
37642;DHT22;23486;51.956;5.888;2022-08-18T03:16:42;18.90;99.90
37642;DHT22;23486;51.956;5.888;2022-08-18T03:19:08;19.00;99.90
37642;DHT22;23486;51.956;5.888;2022-08-18T03:21:36;19.00;99.90
37642;DHT22;23486;51.956;5.888;2022-08-18T03:24:03;19.00;99.90
37642;DHT22;23486;51.956;5.888;2022-08-18T03:26:33;19.00;99.90
37642;DHT22;23486;51.956;5.888;2022-08-18T03:28:59;19.10;99.90
37642;DHT22;23486;51.956;5.888;2022-08-18T03:31:27;19.00;99.90
37642;DHT22;23486;51.956;5.888;2022-08-18T03:33:55;19.10;99.90
37642;DHT22;23486;51.956;5.888;2022-08-18T03:36:23;19.10;99.90
37642;DHT22;23486;51.956;5.888;2022-08-18T03:38:52;19.10;99.90
37642;DHT22;23486;51.956;5.888;2022-08-18T03:41:20;19.10;99.90
37642;DHT22;23486;51.956;5.888;2022-08-18T03:43:48;19.10;99.90
37642;DHT22;23486;51.956;5.888;2022-08-18T03:46:15;19.10;99.90
37642;DHT22;23486;51.956;5.888;2022-08-18T03:48:42;19.10;99.90
37642;DHT22;23486;51.956;5.888;2022-08-18T03:51:29;19.10;99.90
37642;DHT22;23486;51.956;5.888;2022-08-18T03:53:58;19.10;99.90
37642;DHT22;23486;51.956;5.888;2022-08-18T03:56:27;19.10;99.90
37642;DHT22;23486;51.956;5.888;2022-08-18T03:58:55;19.10;99.90
37642;DHT22;23486;51.956;5.888;2022-08-18T04:01:24;19.00;99.90
37642;DHT22;23486;51.956;5.888;2022-08-18T04:03:52;19.10;99.90
37642;DHT22;23486;51.956;5.888;2022-08-18T04:06:24;19.10;99.90
37642;DHT22;23486;51.956;5.888;2022-08-18T04:08:57;19.10;99.90
37642;DHT22;23486;51.956;5.888;2022-08-18T04:11:23;19.10;99.90
37642;DHT22;23486;51.956;5.888;2022-08-18T04:13:49;19.10;99.90
37642;DHT22;23486;51.956;5.888;2022-08-18T04:16:15;19.10;99.90
37642;DHT22;23486;51.956;5.888;2022-08-18T04:18:41;19.00;99.90
37642;DHT22;23486;51.956;5.888;2022-08-18T04:21:09;19.00;99.90
37642;DHT22;23486;51.956;5.888;2022-08-18T04:23:39;19.00;99.90
37642;DHT22;23486;51.956;5.888;2022-08-18T04:26:07;19.00;99.90
37642;DHT22;23486;51.956;5.888;2022-08-18T04:28:33;19.00;99.90
37642;DHT22;23486;51.956;5.888;2022-08-18T04:31:05;19.00;99.90
37642;DHT22;23486;51.956;5.888;2022-08-18T04:33:31;19.10;99.90
37642;DHT22;23486;51.956;5.888;2022-08-18T04:35:57;19.10;99.90
37642;DHT22;23486;51.956;5.888;2022-08-18T04:38:22;19.10;99.90
37642;DHT22;23486;51.956;5.888;2022-08-18T04:40:48;19.10;99.90
37642;DHT22;23486;51.956;5.888;2022-08-18T04:43:14;19.10;99.90
37642;DHT22;23486;51.956;5.888;2022-08-18T04:45:47;19.20;99.90
37642;DHT22;23486;51.956;5.888;2022-08-18T04:48:12;19.10;99.90
37642;DHT22;23486;51.956;5.888;2022-08-18T04:50:41;19.10;99.90
37642;DHT22;23486;51.956;5.888;2022-08-18T04:53:06;19.00;99.90
37642;DHT22;23486;51.956;5.888;2022-08-18T04:55:53;19.00;99.90
37642;DHT22;23486;51.956;5.888;2022-08-18T04:58:21;19.00;99.90
37642;DHT22;23486;51.956;5.888;2022-08-18T05:00:58;19.00;99.90
37642;DHT22;23486;51.956;5.888;2022-08-18T05:03:24;19.00;99.90
37642;DHT22;23486;51.956;5.888;2022-08-18T05:05:56;19.00;99.90
37642;DHT22;23486;51.956;5.888;2022-08-18T05:08:23;18.90;99.90
37642;DHT22;23486;51.956;5.888;2022-08-18T05:10:55;19.00;99.90
37642;DHT22;23486;51.956;5.888;2022-08-18T05:13:22;19.00;99.90
37642;DHT22;23486;51.956;5.888;2022-08-18T05:15:55;19.00;99.90
37642;DHT22;23486;51.956;5.888;2022-08-18T05:18:23;19.00;99.90
37642;DHT22;23486;51.956;5.888;2022-08-18T05:20:53;19.00;99.90
37642;DHT22;23486;51.956;5.888;2022-08-18T05:23:20;19.00;99.90
37642;DHT22;23486;51.956;5.888;2022-08-18T05:25:46;19.00;99.90
37642;DHT22;23486;51.956;5.888;2022-08-18T05:28:12;19.00;99.90
37642;DHT22;23486;51.956;5.888;2022-08-18T05:30:39;19.00;99.90
37642;DHT22;23486;51.956;5.888;2022-08-18T05:33:07;19.00;99.90
37642;DHT22;23486;51.956;5.888;2022-08-18T05:35:44;19.00;99.90
37642;DHT22;23486;51.956;5.888;2022-08-18T05:41:18;19.00;99.90
37642;DHT22;23486;51.956;5.888;2022-08-18T05:43:46;18.90;99.90
37642;DHT22;23486;51.956;5.888;2022-08-18T05:46:13;19.00;99.90
37642;DHT22;23486;51.956;5.888;2022-08-18T05:48:39;19.20;99.90
37642;DHT22;23486;51.956;5.888;2022-08-18T05:51:29;19.20;99.90
37642;DHT22;23486;51.956;5.888;2022-08-18T05:53:55;19.30;99.90
37642;DHT22;23486;51.956;5.888;2022-08-18T05:56:41;19.30;99.90
37642;DHT22;23486;51.956;5.888;2022-08-18T05:59:30;19.30;99.90
37642;DHT22;23486;51.956;5.888;2022-08-18T06:02:04;19.40;99.90
37642;DHT22;23486;51.956;5.888;2022-08-18T06:05:05;19.50;99.90
37642;DHT22;23486;51.956;5.888;2022-08-18T06:07:40;19.50;99.90
37642;DHT22;23486;51.956;5.888;2022-08-18T06:10:07;19.50;99.90
37642;DHT22;23486;51.956;5.888;2022-08-18T06:12:39;19.60;99.90
37642;DHT22;23486;51.956;5.888;2022-08-18T06:15:24;19.60;99.90
37642;DHT22;23486;51.956;5.888;2022-08-18T06:32:08;19.80;99.90
37642;DHT22;23486;51.956;5.888;2022-08-18T06:37:41;19.80;99.90
37642;DHT22;23486;51.956;5.888;2022-08-18T06:40:30;19.80;99.90
37642;DHT22;23486;51.956;5.888;2022-08-18T06:42:56;19.80;99.90
37642;DHT22;23486;51.956;5.888;2022-08-18T06:45:35;19.90;99.90
37642;DHT22;23486;51.956;5.888;2022-08-18T06:48:11;19.90;99.90
37642;DHT22;23486;51.956;5.888;2022-08-18T06:50:52;19.90;99.90
37642;DHT22;23486;51.956;5.888;2022-08-18T06:53:20;20.00;99.90
37642;DHT22;23486;51.956;5.888;2022-08-18T06:55:48;20.00;99.90
37642;DHT22;23486;51.956;5.888;2022-08-18T06:58:28;20.00;99.90
37642;DHT22;23486;51.956;5.888;2022-08-18T07:01:04;20.10;99.90
37642;DHT22;23486;51.956;5.888;2022-08-18T07:08:46;20.10;99.90
37642;DHT22;23486;51.956;5.888;2022-08-18T07:11:19;20.10;99.90
37642;DHT22;23486;51.956;5.888;2022-08-18T07:13:48;20.20;99.90
37642;DHT22;23486;51.956;5.888;2022-08-18T07:16:33;20.20;99.90
37642;DHT22;23486;51.956;5.888;2022-08-18T07:19:07;20.20;99.90
37642;DHT22;23486;51.956;5.888;2022-08-18T07:21:33;20.30;99.90
37642;DHT22;23486;51.956;5.888;2022-08-18T07:24:03;20.30;99.90
37642;DHT22;23486;51.956;5.888;2022-08-18T07:26:30;20.30;99.90
37642;DHT22;23486;51.956;5.888;2022-08-18T07:29:13;20.30;99.90
37642;DHT22;23486;51.956;5.888;2022-08-18T07:31:42;20.30;99.90
37642;DHT22;23486;51.956;5.888;2022-08-18T07:34:23;20.40;99.90
37642;DHT22;23486;51.956;5.888;2022-08-18T07:36:52;20.50;99.90
37642;DHT22;23486;51.956;5.888;2022-08-18T07:42:09;20.60;99.90
37642;DHT22;23486;51.956;5.888;2022-08-18T07:47:25;20.60;99.90
37642;DHT22;23486;51.956;5.888;2022-08-18T07:49:52;20.60;99.90
37642;DHT22;23486;51.956;5.888;2022-08-18T07:52:30;20.70;99.90
37642;DHT22;23486;51.956;5.888;2022-08-18T07:55:09;20.80;99.90
37642;DHT22;23486;51.956;5.888;2022-08-18T08:06:25;21.10;99.90
37642;DHT22;23486;51.956;5.888;2022-08-18T08:09:05;21.20;99.90
37642;DHT22;23486;51.956;5.888;2022-08-18T08:12:03;21.30;99.90
37642;DHT22;23486;51.956;5.888;2022-08-18T08:25:23;21.80;99.90
37642;DHT22;23486;51.956;5.888;2022-08-18T08:28:19;22.00;99.90
37642;DHT22;23486;51.956;5.888;2022-08-18T08:33:49;22.20;99.90
37642;DHT22;23486;51.956;5.888;2022-08-18T08:36:27;22.20;99.90
37642;DHT22;23486;51.956;5.888;2022-08-18T08:38:58;22.10;99.90
37642;DHT22;23486;51.956;5.888;2022-08-18T08:46:51;22.00;99.90
37642;DHT22;23486;51.956;5.888;2022-08-18T08:52:18;22.00;99.90
37642;DHT22;23486;51.956;5.888;2022-08-18T08:54:56;22.10;99.90
37642;DHT22;23486;51.956;5.888;2022-08-18T08:57:28;22.20;99.90
37642;DHT22;23486;51.956;5.888;2022-08-18T08:59:57;22.30;99.90
37642;DHT22;23486;51.956;5.888;2022-08-18T09:05:29;22.60;99.90
37642;DHT22;23486;51.956;5.888;2022-08-18T09:08:10;22.60;99.90
37642;DHT22;23486;51.956;5.888;2022-08-18T09:13:47;22.80;99.90
37642;DHT22;23486;51.956;5.888;2022-08-18T09:19:29;22.80;99.90
37642;DHT22;23486;51.956;5.888;2022-08-18T09:24:51;23.00;99.90
37642;DHT22;23486;51.956;5.888;2022-08-18T09:27:44;23.00;99.90
37642;DHT22;23486;51.956;5.888;2022-08-18T09:30:36;23.20;99.90
37642;DHT22;23486;51.956;5.888;2022-08-18T09:38:43;23.70;99.90
37642;DHT22;23486;51.956;5.888;2022-08-18T09:41:45;23.70;99.90
37642;DHT22;23486;51.956;5.888;2022-08-18T09:44:14;23.70;99.90
37642;DHT22;23486;51.956;5.888;2022-08-18T09:47:00;23.60;99.90
37642;DHT22;23486;51.956;5.888;2022-08-18T09:51:53;23.50;99.90
37642;DHT22;23486;51.956;5.888;2022-08-18T09:54:22;23.40;99.90
37642;DHT22;23486;51.956;5.888;2022-08-18T10:02:11;23.60;99.90
37642;DHT22;23486;51.956;5.888;2022-08-18T10:04:42;23.90;99.90
37642;DHT22;23486;51.956;5.888;2022-08-18T10:07:19;24.10;99.90
37642;DHT22;23486;51.956;5.888;2022-08-18T10:10:04;24.30;99.90
37642;DHT22;23486;51.956;5.888;2022-08-18T10:23:52;24.30;99.90
37642;DHT22;23486;51.956;5.888;2022-08-18T10:34:50;24.30;99.90
37642;DHT22;23486;51.956;5.888;2022-08-18T10:37:39;24.30;99.80
37642;DHT22;23486;51.956;5.888;2022-08-18T10:45:48;24.50;99.70
37642;DHT22;23486;51.956;5.888;2022-08-18T10:50:52;24.90;99.70
37642;DHT22;23486;51.956;5.888;2022-08-18T10:56:54;25.30;99.00
37642;DHT22;23486;51.956;5.888;2022-08-18T11:04:56;25.40;99.00
37642;DHT22;23486;51.956;5.888;2022-08-18T11:07:25;25.30;98.90
37642;DHT22;23486;51.956;5.888;2022-08-18T11:09:55;25.20;98.90
37642;DHT22;23486;51.956;5.888;2022-08-18T11:15:31;24.90;98.70
37642;DHT22;23486;51.956;5.888;2022-08-18T11:20:29;24.70;98.80
37642;DHT22;23486;51.956;5.888;2022-08-18T11:22:58;24.60;98.90
37642;DHT22;23486;51.956;5.888;2022-08-18T11:25:33;24.50;99.00
37642;DHT22;23486;51.956;5.888;2022-08-18T11:28:00;24.40;99.10
37642;DHT22;23486;51.956;5.888;2022-08-18T11:30:33;24.30;99.20
37642;DHT22;23486;51.956;5.888;2022-08-18T11:33:00;24.30;99.10
37642;DHT22;23486;51.956;5.888;2022-08-18T11:35:33;24.20;99.30
37642;DHT22;23486;51.956;5.888;2022-08-18T11:38:01;24.20;99.30
37642;DHT22;23486;51.956;5.888;2022-08-18T11:43:02;24.40;99.40
37642;DHT22;23486;51.956;5.888;2022-08-18T11:45:46;24.50;99.70
37642;DHT22;23486;51.956;5.888;2022-08-18T11:48:31;24.70;99.30
37642;DHT22;23486;51.956;5.888;2022-08-18T11:51:01;24.80;99.20
37642;DHT22;23486;51.956;5.888;2022-08-18T11:56:23;25.00;98.90
37642;DHT22;23486;51.956;5.888;2022-08-18T12:01:46;25.10;98.70
37642;DHT22;23486;51.956;5.888;2022-08-18T12:07:03;25.00;98.10
37642;DHT22;23486;51.956;5.888;2022-08-18T12:12:14;24.70;98.00
37642;DHT22;23486;51.956;5.888;2022-08-18T12:15:01;24.70;98.00
37642;DHT22;23486;51.956;5.888;2022-08-18T12:17:28;24.50;98.00
37642;DHT22;23486;51.956;5.888;2022-08-18T12:19:54;24.50;98.10
37642;DHT22;23486;51.956;5.888;2022-08-18T12:22:25;24.40;98.20
37642;DHT22;23486;51.956;5.888;2022-08-18T12:24:51;24.40;98.10
37642;DHT22;23486;51.956;5.888;2022-08-18T12:27:20;24.40;98.10
37642;DHT22;23486;51.956;5.888;2022-08-18T12:29:45;24.40;98.10
37642;DHT22;23486;51.956;5.888;2022-08-18T12:32:12;24.40;98.20
37642;DHT22;23486;51.956;5.888;2022-08-18T12:34:38;24.40;98.10
37642;DHT22;23486;51.956;5.888;2022-08-18T12:37:07;24.40;98.00
37642;DHT22;23486;51.956;5.888;2022-08-18T12:39:32;24.40;98.00
37642;DHT22;23486;51.956;5.888;2022-08-18T12:41:58;24.50;97.90
37642;DHT22;23486;51.956;5.888;2022-08-18T12:44:24;24.50;97.80
37642;DHT22;23486;51.956;5.888;2022-08-18T12:46:50;24.50;97.70
37642;DHT22;23486;51.956;5.888;2022-08-18T12:49:21;24.50;97.90
37642;DHT22;23486;51.956;5.888;2022-08-18T12:51:47;24.60;97.90
37642;DHT22;23486;51.956;5.888;2022-08-18T12:54:12;24.60;97.70
37642;DHT22;23486;51.956;5.888;2022-08-18T12:56:39;24.70;97.70
37642;DHT22;23486;51.956;5.888;2022-08-18T12:59:06;24.70;97.60
37642;DHT22;23486;51.956;5.888;2022-08-18T13:01:34;24.70;97.50
37642;DHT22;23486;51.956;5.888;2022-08-18T13:03:59;24.70;97.40
37642;DHT22;23486;51.956;5.888;2022-08-18T13:06:26;24.70;97.50
37642;DHT22;23486;51.956;5.888;2022-08-18T13:08:55;24.70;97.50
37642;DHT22;23486;51.956;5.888;2022-08-18T13:11:22;24.70;97.30
37642;DHT22;23486;51.956;5.888;2022-08-18T13:13:49;24.70;97.40
37642;DHT22;23486;51.956;5.888;2022-08-18T13:16:15;24.70;97.30
37642;DHT22;23486;51.956;5.888;2022-08-18T13:18:41;24.70;97.20
37642;DHT22;23486;51.956;5.888;2022-08-18T13:21:08;24.70;97.20
37642;DHT22;23486;51.956;5.888;2022-08-18T13:23:34;24.70;97.30
37642;DHT22;23486;51.956;5.888;2022-08-18T13:26:01;24.70;97.30
37642;DHT22;23486;51.956;5.888;2022-08-18T13:28:28;24.70;97.30
37642;DHT22;23486;51.956;5.888;2022-08-18T13:30:54;24.70;97.40
37642;DHT22;23486;51.956;5.888;2022-08-18T13:33:20;24.70;97.50
37642;DHT22;23486;51.956;5.888;2022-08-18T13:35:46;24.70;97.30
37642;DHT22;23486;51.956;5.888;2022-08-18T13:38:13;24.80;97.30
37642;DHT22;23486;51.956;5.888;2022-08-18T13:40:40;24.80;97.30
37642;DHT22;23486;51.956;5.888;2022-08-18T13:43:10;24.90;97.30
37642;DHT22;23486;51.956;5.888;2022-08-18T13:45:35;25.00;97.20
37642;DHT22;23486;51.956;5.888;2022-08-18T13:48:01;24.90;97.00
37642;DHT22;23486;51.956;5.888;2022-08-18T13:50:27;25.00;96.90
37642;DHT22;23486;51.956;5.888;2022-08-18T13:52:53;25.00;96.90
37642;DHT22;23486;51.956;5.888;2022-08-18T13:55:19;25.00;96.70
37642;DHT22;23486;51.956;5.888;2022-08-18T13:57:45;25.10;96.70
37642;DHT22;23486;51.956;5.888;2022-08-18T14:00:19;25.30;96.60
37642;DHT22;23486;51.956;5.888;2022-08-18T14:02:50;25.40;96.30
37642;DHT22;23486;51.956;5.888;2022-08-18T14:05:21;25.60;96.20
37642;DHT22;23486;51.956;5.888;2022-08-18T14:07:47;26.10;96.30
37642;DHT22;23486;51.956;5.888;2022-08-18T14:10:14;26.70;96.10
37642;DHT22;23486;51.956;5.888;2022-08-18T14:12:40;27.30;95.90
37642;DHT22;23486;51.956;5.888;2022-08-18T14:15:10;27.70;95.40
37642;DHT22;23486;51.956;5.888;2022-08-18T14:17:36;28.10;95.10
37642;DHT22;23486;51.956;5.888;2022-08-18T14:20:04;28.50;94.50
37642;DHT22;23486;51.956;5.888;2022-08-18T14:22:51;28.70;93.20
37642;DHT22;23486;51.956;5.888;2022-08-18T14:25:35;28.60;93.10
37642;DHT22;23486;51.956;5.888;2022-08-18T14:28:19;28.80;92.90
37642;DHT22;23486;51.956;5.888;2022-08-18T14:30:45;29.10;92.40
37642;DHT22;23486;51.956;5.888;2022-08-18T14:33:11;29.10;92.00
37642;DHT22;23486;51.956;5.888;2022-08-18T14:35:42;29.00;91.60
37642;DHT22;23486;51.956;5.888;2022-08-18T14:38:08;28.80;91.50
37642;DHT22;23486;51.956;5.888;2022-08-18T14:40:35;28.60;90.20
37642;DHT22;23486;51.956;5.888;2022-08-18T14:43:01;28.40;90.70
37642;DHT22;23486;51.956;5.888;2022-08-18T14:45:28;28.60;90.90
37642;DHT22;23486;51.956;5.888;2022-08-18T14:48:02;28.60;90.50
37642;DHT22;23486;51.956;5.888;2022-08-18T14:50:28;28.60;90.60
37642;DHT22;23486;51.956;5.888;2022-08-18T14:52:54;28.80;90.70
37642;DHT22;23486;51.956;5.888;2022-08-18T14:55:19;28.80;89.70
37642;DHT22;23486;51.956;5.888;2022-08-18T14:57:45;28.70;90.00
37642;DHT22;23486;51.956;5.888;2022-08-18T15:00:14;28.80;89.40
37642;DHT22;23486;51.956;5.888;2022-08-18T15:02:41;28.70;87.50
37642;DHT22;23486;51.956;5.888;2022-08-18T15:05:09;28.60;86.80
37642;DHT22;23486;51.956;5.888;2022-08-18T15:07:35;28.50;87.40
37642;DHT22;23486;51.956;5.888;2022-08-18T15:10:09;28.60;87.40
37642;DHT22;23486;51.956;5.888;2022-08-18T15:12:39;28.50;85.80
37642;DHT22;23486;51.956;5.888;2022-08-18T15:15:06;28.30;85.70
37642;DHT22;23486;51.956;5.888;2022-08-18T15:17:33;28.10;86.30
37642;DHT22;23486;51.956;5.888;2022-08-18T15:20:07;28.00;86.30
37642;DHT22;23486;51.956;5.888;2022-08-18T15:22:42;27.90;85.80
37642;DHT22;23486;51.956;5.888;2022-08-18T15:25:28;27.80;85.80
37642;DHT22;23486;51.956;5.888;2022-08-18T15:28:24;27.70;85.90
37642;DHT22;23486;51.956;5.888;2022-08-18T15:30:54;27.50;86.40
37642;DHT22;23486;51.956;5.888;2022-08-18T15:33:22;27.50;86.50
37642;DHT22;23486;51.956;5.888;2022-08-18T15:35:49;27.40;86.50
37642;DHT22;23486;51.956;5.888;2022-08-18T15:38:20;27.40;85.80
37642;DHT22;23486;51.956;5.888;2022-08-18T15:40:57;27.30;86.40
37642;DHT22;23486;51.956;5.888;2022-08-18T15:43:25;27.20;85.60
37642;DHT22;23486;51.956;5.888;2022-08-18T15:45:51;27.20;85.80
37642;DHT22;23486;51.956;5.888;2022-08-18T15:48:19;27.00;85.80
37642;DHT22;23486;51.956;5.888;2022-08-18T15:50:49;26.90;86.10
37642;DHT22;23486;51.956;5.888;2022-08-18T15:53:18;27.00;86.40
37642;DHT22;23486;51.956;5.888;2022-08-18T15:55:44;27.00;86.70
37642;DHT22;23486;51.956;5.888;2022-08-18T15:58:11;27.00;86.80
37642;DHT22;23486;51.956;5.888;2022-08-18T16:00:39;26.90;86.90
37642;DHT22;23486;51.956;5.888;2022-08-18T16:03:08;26.90;86.90
37642;DHT22;23486;51.956;5.888;2022-08-18T16:05:40;26.80;87.00
37642;DHT22;23486;51.956;5.888;2022-08-18T16:08:07;26.70;87.40
37642;DHT22;23486;51.956;5.888;2022-08-18T16:10:35;26.80;87.60
37642;DHT22;23486;51.956;5.888;2022-08-18T16:13:02;26.90;87.70
37642;DHT22;23486;51.956;5.888;2022-08-18T16:15:32;26.90;88.00
37642;DHT22;23486;51.956;5.888;2022-08-18T16:17:58;26.90;88.40
37642;DHT22;23486;51.956;5.888;2022-08-18T16:20:24;26.80;88.40
37642;DHT22;23486;51.956;5.888;2022-08-18T16:22:50;26.70;88.60
37642;DHT22;23486;51.956;5.888;2022-08-18T16:25:16;26.70;88.80
37642;DHT22;23486;51.956;5.888;2022-08-18T16:27:42;26.70;89.00
37642;DHT22;23486;51.956;5.888;2022-08-18T16:30:11;26.60;88.80
37642;DHT22;23486;51.956;5.888;2022-08-18T16:32:37;26.50;88.90
37642;DHT22;23486;51.956;5.888;2022-08-18T16:35:04;26.30;89.30
37642;DHT22;23486;51.956;5.888;2022-08-18T16:37:33;26.20;89.80
37642;DHT22;23486;51.956;5.888;2022-08-18T16:40:02;26.20;90.10
37642;DHT22;23486;51.956;5.888;2022-08-18T16:42:27;26.20;90.20
37642;DHT22;23486;51.956;5.888;2022-08-18T16:44:58;26.20;90.40
37642;DHT22;23486;51.956;5.888;2022-08-18T16:47:24;26.00;90.30
37642;DHT22;23486;51.956;5.888;2022-08-18T16:49:51;25.90;90.50
37642;DHT22;23486;51.956;5.888;2022-08-18T16:52:18;25.80;90.70
37642;DHT22;23486;51.956;5.888;2022-08-18T16:54:45;25.90;90.80
37642;DHT22;23486;51.956;5.888;2022-08-18T16:57:11;25.90;90.90
37642;DHT22;23486;51.956;5.888;2022-08-18T16:59:37;26.00;90.90
37642;DHT22;23486;51.956;5.888;2022-08-18T17:02:22;26.00;91.00
37642;DHT22;23486;51.956;5.888;2022-08-18T17:05:07;25.90;91.00
37642;DHT22;23486;51.956;5.888;2022-08-18T17:07:35;25.90;91.20
37642;DHT22;23486;51.956;5.888;2022-08-18T17:10:01;25.80;91.30
37642;DHT22;23486;51.956;5.888;2022-08-18T17:12:27;25.80;91.40
37642;DHT22;23486;51.956;5.888;2022-08-18T17:14:53;25.80;91.50
37642;DHT22;23486;51.956;5.888;2022-08-18T17:17:21;25.80;91.60
37642;DHT22;23486;51.956;5.888;2022-08-18T17:19:49;25.80;91.70
37642;DHT22;23486;51.956;5.888;2022-08-18T17:22:16;25.80;91.70
37642;DHT22;23486;51.956;5.888;2022-08-18T17:24:42;25.90;91.70
37642;DHT22;23486;51.956;5.888;2022-08-18T17:27:20;25.80;91.70
37642;DHT22;23486;51.956;5.888;2022-08-18T17:30:11;25.80;91.70
37642;DHT22;23486;51.956;5.888;2022-08-18T17:35:56;25.70;91.70
37642;DHT22;23486;51.956;5.888;2022-08-18T17:38:03;25.60;91.80
37642;DHT22;23486;51.956;5.888;2022-08-18T17:41:03;25.60;91.90
37642;DHT22;23486;51.956;5.888;2022-08-18T17:43:33;25.50;92.00
37642;DHT22;23486;51.956;5.888;2022-08-18T17:46:03;25.40;92.00
37642;DHT22;23486;51.956;5.888;2022-08-18T17:48:37;25.30;92.10
37642;DHT22;23486;51.956;5.888;2022-08-18T17:51:11;25.10;92.30
37642;DHT22;23486;51.956;5.888;2022-08-18T17:53:57;25.00;92.40
37642;DHT22;23486;51.956;5.888;2022-08-18T17:56:32;24.90;92.70
37642;DHT22;23486;51.956;5.888;2022-08-18T17:59:12;24.70;92.90
37642;DHT22;23486;51.956;5.888;2022-08-18T18:01:40;24.70;93.10
37642;DHT22;23486;51.956;5.888;2022-08-18T18:04:08;24.60;93.30
37642;DHT22;23486;51.956;5.888;2022-08-18T18:09:00;24.60;93.50
37642;DHT22;23486;51.956;5.888;2022-08-18T18:11:30;24.60;93.60
37642;DHT22;23486;51.956;5.888;2022-08-18T18:13:58;24.50;93.70
37642;DHT22;23486;51.956;5.888;2022-08-18T18:18:55;24.40;94.00
37642;DHT22;23486;51.956;5.888;2022-08-18T18:21:23;24.40;94.00
37642;DHT22;23486;51.956;5.888;2022-08-18T18:24:10;24.30;94.10